createdAt,value
2019-03-23T00:01:24.587Z,18.52
2019-03-23T00:03:56.715Z,19.35
2019-03-23T00:06:31.070Z,19.17
2019-03-23T00:09:04.840Z,19.12
2019-03-23T00:11:36.939Z,17.25
2019-03-23T00:14:08.821Z,24.25
2019-03-23T00:16:41.144Z,18.70
2019-03-23T00:19:13.203Z,18.37
2019-03-23T00:21:45.221Z,18.37
2019-03-23T00:24:17.280Z,18.12
2019-03-23T00:26:49.231Z,19.87
2019-03-23T00:29:21.421Z,19.62
2019-03-23T00:31:53.329Z,19.23
2019-03-23T00:34:25.509Z,23.12
2019-03-23T00:36:57.572Z,21.37
2019-03-23T00:39:29.849Z,22.37
2019-03-23T00:42:02.035Z,22.37
2019-03-23T00:44:34.004Z,22.22
2019-03-23T00:47:06.861Z,24.82
2019-03-23T00:49:38.935Z,23.83
2019-03-23T00:52:10.974Z,33.73
2019-03-23T00:54:43.240Z,32.58
2019-03-23T00:57:15.396Z,32.78
2019-03-23T00:59:47.411Z,31.77
2019-03-23T01:02:19.604Z,29.90
2019-03-23T01:04:51.829Z,30.08
2019-03-23T01:07:23.938Z,34.13
2019-03-23T01:09:56.011Z,29.12
2019-03-23T01:12:28.218Z,29.67
2019-03-23T01:15:00.492Z,27.30
2019-03-23T01:17:32.525Z,29.05
2019-03-23T01:20:04.863Z,32.35
2019-03-23T01:22:37.099Z,27.45
2019-03-23T01:25:09.402Z,27.00
2019-03-23T01:27:41.573Z,25.37
2019-03-23T01:30:13.800Z,24.43
2019-03-23T01:32:45.867Z,26.82
2019-03-23T01:35:17.906Z,25.20
2019-03-23T01:37:50.053Z,25.02
2019-03-23T01:40:22.131Z,27.45
2019-03-23T01:42:54.386Z,30.80
2019-03-23T01:45:26.442Z,23.40
2019-03-23T01:47:58.406Z,25.82
2019-03-23T01:50:30.577Z,29.02
2019-03-23T01:53:02.522Z,24.90
2019-03-23T01:55:34.593Z,21.85
2019-03-23T01:58:06.510Z,27.10
2019-03-23T02:00:38.934Z,25.20
2019-03-23T02:03:11.225Z,22.60
2019-03-23T02:05:44.228Z,23.83
2019-03-23T02:08:16.252Z,20.10
2019-03-23T02:10:48.150Z,19.50
2019-03-23T02:13:20.347Z,22.37
2019-03-23T02:15:52.154Z,17.95
2019-03-23T02:18:23.936Z,22.50
2019-03-23T02:20:56.671Z,22.07
2019-03-23T02:23:28.671Z,20.40
2019-03-23T02:26:01.792Z,23.32
2019-03-23T02:28:33.878Z,20.77
2019-03-23T02:31:07.304Z,20.37
2019-03-23T02:33:39.380Z,21.17
2019-03-23T02:36:11.462Z,18.45
2019-03-23T02:38:43.625Z,21.48
2019-03-23T02:41:15.861Z,19.27
2019-03-23T02:43:47.876Z,18.65
2019-03-23T02:46:19.935Z,23.10
2019-03-23T02:48:51.971Z,23.60
2019-03-23T02:51:24.214Z,20.75
2019-03-23T02:53:56.143Z,22.77
2019-03-23T02:56:28.253Z,22.13
2019-03-23T02:59:00.369Z,21.68
2019-03-23T03:01:32.454Z,21.25
2019-03-23T03:04:04.554Z,24.90
2019-03-23T03:06:36.639Z,21.35
2019-03-23T03:09:09.070Z,21.20
2019-03-23T03:11:41.214Z,21.45
2019-03-23T03:14:13.360Z,24.12
2019-03-23T03:16:45.432Z,22.27
2019-03-23T03:19:17.467Z,21.97
2019-03-23T03:21:49.722Z,23.20
2019-03-23T03:24:21.498Z,27.62
2019-03-23T03:26:53.415Z,21.35
2019-03-23T03:29:25.519Z,20.95
2019-03-23T03:31:57.498Z,22.00
2019-03-23T03:34:29.542Z,18.60
2019-03-23T03:37:01.607Z,24.82
2019-03-23T03:39:33.577Z,19.12
2019-03-23T03:42:05.640Z,22.22
2019-03-23T03:44:37.706Z,17.90
2019-03-23T03:47:09.500Z,21.50
2019-03-23T03:49:41.728Z,24.57
2019-03-23T03:52:13.821Z,22.85
2019-03-23T03:54:46.048Z,27.20
2019-03-23T03:57:17.997Z,23.42
2019-03-23T03:59:51.088Z,25.48
2019-03-23T04:02:23.184Z,22.73
2019-03-23T04:04:55.142Z,28.67
2019-03-23T04:07:27.082Z,20.92
2019-03-23T04:09:58.969Z,22.73
2019-03-23T04:12:31.025Z,25.77
2019-03-23T04:15:02.897Z,28.12
2019-03-23T04:17:34.728Z,25.43
2019-03-23T04:20:07.010Z,35.55
2019-03-23T04:22:39.128Z,22.45
2019-03-23T04:25:11.405Z,21.07
2019-03-23T04:27:43.416Z,23.90
2019-03-23T04:30:15.918Z,21.12
2019-03-23T04:32:47.732Z,21.82
2019-03-23T04:35:19.909Z,21.12
2019-03-23T04:37:51.978Z,22.55
2019-03-23T04:40:23.767Z,26.35
2019-03-23T04:42:55.868Z,22.85
2019-03-23T04:45:27.869Z,22.87
2019-03-23T04:48:00.000Z,26.30
2019-03-23T04:50:32.035Z,22.65
2019-03-23T04:53:04.199Z,25.52
2019-03-23T04:55:36.220Z,25.32
2019-03-23T04:58:08.323Z,21.27
2019-03-23T05:00:40.487Z,21.95
2019-03-23T05:03:12.603Z,26.97
2019-03-23T05:05:44.699Z,22.93
2019-03-23T05:08:16.455Z,26.68
2019-03-23T05:10:48.487Z,27.35
2019-03-23T05:13:20.262Z,23.20
2019-03-23T05:15:52.394Z,28.73
2019-03-23T05:18:24.642Z,23.55
2019-03-23T05:20:56.860Z,26.50
2019-03-23T05:23:29.160Z,32.23
2019-03-23T05:26:01.172Z,37.73
2019-03-23T05:28:33.284Z,41.90
2019-03-23T05:31:07.103Z,41.77
2019-03-23T05:33:39.475Z,40.88
2019-03-23T05:36:11.350Z,39.78
2019-03-23T05:38:44.650Z,45.00
2019-03-23T05:41:16.891Z,41.23
2019-03-23T05:43:49.027Z,42.30
2019-03-23T05:46:20.944Z,38.23
2019-03-23T05:48:52.926Z,33.95
2019-03-23T05:51:25.053Z,33.73
2019-03-23T05:53:56.793Z,34.83
2019-03-23T05:56:28.991Z,30.48
2019-03-23T05:59:01.290Z,31.65
2019-03-23T06:01:33.068Z,25.77
2019-03-23T06:04:05.285Z,26.15
2019-03-23T06:06:38.381Z,26.80
2019-03-23T06:09:10.456Z,29.87
2019-03-23T06:11:42.617Z,29.75
2019-03-23T06:14:14.848Z,25.55
2019-03-23T06:16:46.848Z,29.18
2019-03-23T06:19:18.767Z,24.02
2019-03-23T06:21:50.596Z,30.25
2019-03-23T06:24:22.637Z,26.57
2019-03-23T06:26:54.458Z,27.43
2019-03-23T06:29:26.099Z,28.97
2019-03-23T06:31:57.916Z,32.33
2019-03-23T06:34:29.660Z,28.47
2019-03-23T06:37:01.647Z,31.37
2019-03-23T06:39:33.488Z,31.33
2019-03-23T06:42:05.201Z,31.57
2019-03-23T06:44:37.150Z,25.33
2019-03-23T06:47:08.961Z,28.90
2019-03-23T06:49:40.660Z,34.77
2019-03-23T06:52:12.572Z,22.83
2019-03-23T06:54:44.230Z,20.87
2019-03-23T06:57:16.119Z,22.90
2019-03-23T06:59:48.033Z,21.23
2019-03-23T07:02:19.840Z,23.07
2019-03-23T07:04:51.675Z,24.23
2019-03-23T07:07:23.608Z,27.57
2019-03-23T07:09:57.446Z,23.90
2019-03-23T07:12:29.351Z,24.60
2019-03-23T07:15:01.102Z,24.37
2019-03-23T07:17:32.880Z,30.27
2019-03-23T07:20:05.097Z,29.73
2019-03-23T07:22:36.910Z,21.87
2019-03-23T07:25:09.348Z,29.90
2019-03-23T07:27:41.182Z,20.33
2019-03-23T07:30:14.746Z,24.77
2019-03-23T07:32:46.858Z,29.57
2019-03-23T07:35:19.151Z,27.47
2019-03-23T07:37:51.159Z,30.67
2019-03-23T07:40:22.900Z,20.83
2019-03-23T07:42:54.986Z,24.47
2019-03-23T07:45:26.811Z,25.23
2019-03-23T07:47:59.630Z,25.60
2019-03-23T07:50:31.341Z,23.10
2019-03-23T07:53:03.297Z,26.10
2019-03-23T07:55:35.090Z,22.37
2019-03-23T07:58:06.754Z,17.73
2019-03-23T08:00:40.915Z,25.70
2019-03-23T08:03:12.350Z,32.93
2019-03-23T08:05:44.166Z,22.33
2019-03-23T08:08:15.736Z,19.57
2019-03-23T08:10:47.717Z,17.10
2019-03-23T08:13:19.222Z,22.37
2019-03-23T08:15:51.349Z,20.10
2019-03-23T08:18:23.327Z,22.80
2019-03-23T08:20:55.114Z,17.60
2019-03-23T08:23:26.679Z,15.43
2019-03-23T08:25:58.562Z,18.17
2019-03-23T08:28:32.401Z,19.50
2019-03-23T08:31:03.835Z,16.80
2019-03-23T08:33:35.637Z,27.83
2019-03-23T08:36:07.465Z,23.23
2019-03-23T08:38:39.297Z,29.40
2019-03-23T08:41:10.867Z,17.30
2019-03-23T08:43:42.614Z,15.47
2019-03-23T08:46:14.263Z,22.47
2019-03-23T08:48:46.026Z,15.20
2019-03-23T08:51:17.557Z,15.60
2019-03-23T08:53:49.436Z,21.50
2019-03-23T08:56:21.278Z,22.73
2019-03-23T08:58:50.392Z,16.23
2019-03-23T09:01:22.282Z,15.27
2019-03-23T09:03:54.312Z,13.30
2019-03-23T09:06:26.185Z,18.50
2019-03-23T09:08:58.966Z,12.40
2019-03-23T09:11:30.673Z,11.87
2019-03-23T09:14:02.290Z,16.17
2019-03-23T09:16:33.883Z,16.13
2019-03-23T09:19:05.704Z,13.07
2019-03-23T09:21:37.579Z,13.83
2019-03-23T09:24:09.481Z,18.07
2019-03-23T09:26:41.373Z,27.20
2019-03-23T09:29:13.239Z,18.23
2019-03-23T09:31:45.238Z,14.93
2019-03-23T09:34:17.199Z,14.70
2019-03-23T09:36:49.105Z,19.00
2019-03-23T09:39:20.865Z,14.37
2019-03-23T09:41:52.791Z,15.73
2019-03-23T09:44:25.224Z,15.13
2019-03-23T09:46:58.394Z,15.93
2019-03-23T09:49:30.265Z,15.03
2019-03-23T09:52:02.129Z,13.13
2019-03-23T09:54:35.037Z,14.30
2019-03-23T09:57:06.978Z,16.37
2019-03-23T09:59:38.985Z,12.97
2019-03-23T10:02:10.756Z,16.03
2019-03-23T10:04:42.616Z,13.93
2019-03-23T10:07:14.542Z,14.57
2019-03-23T10:09:47.167Z,12.53
2019-03-23T10:12:19.237Z,11.63
2019-03-23T10:14:51.177Z,13.57
2019-03-23T10:17:22.820Z,11.83
2019-03-23T10:19:54.689Z,15.97
2019-03-23T10:22:26.420Z,11.17
2019-03-23T10:24:58.122Z,9.77
2019-03-23T10:27:30.540Z,13.20
2019-03-23T10:30:02.444Z,14.37
2019-03-23T10:32:35.658Z,15.90
2019-03-23T10:35:09.010Z,16.47
2019-03-23T10:37:40.757Z,15.53
2019-03-23T10:40:12.691Z,11.67
2019-03-23T10:42:44.742Z,12.00
2019-03-23T10:45:16.903Z,34.30
2019-03-23T10:50:26.691Z,13.90
2019-03-23T10:53:00.008Z,10.07
2019-03-23T10:55:32.065Z,14.90
2019-03-23T10:58:04.081Z,11.80
2019-03-23T11:00:35.972Z,12.70
2019-03-23T11:03:07.905Z,11.17
2019-03-23T11:05:39.405Z,11.93
2019-03-23T11:08:11.051Z,16.33
2019-03-23T11:10:42.584Z,14.00
2019-03-23T11:13:14.143Z,12.37
2019-03-23T11:15:45.849Z,11.63
2019-03-23T11:18:17.759Z,14.57
2019-03-23T11:20:49.659Z,15.60
2019-03-23T11:23:21.299Z,11.47
2019-03-23T11:25:53.117Z,12.70
2019-03-23T11:28:24.871Z,12.77
2019-03-23T11:30:56.618Z,13.20
2019-03-23T11:33:28.111Z,13.93
2019-03-23T11:35:59.833Z,13.10
2019-03-23T11:38:32.998Z,14.67
2019-03-23T11:41:05.006Z,13.97
2019-03-23T11:43:36.852Z,14.37
2019-03-23T11:46:08.630Z,13.53
2019-03-23T11:48:40.368Z,14.13
2019-03-23T11:51:11.814Z,12.87
2019-03-23T11:53:43.697Z,15.33
2019-03-23T11:56:15.296Z,10.47
2019-03-23T11:58:47.202Z,10.67
2019-03-23T12:01:19.053Z,8.63
2019-03-23T12:03:51.005Z,10.43
2019-03-23T12:06:22.848Z,10.63
2019-03-23T12:08:54.693Z,9.23
2019-03-23T12:11:26.560Z,14.37
2019-03-23T12:13:58.192Z,9.87
2019-03-23T12:16:30.005Z,11.13
2019-03-23T12:19:01.829Z,8.40
2019-03-23T12:21:33.640Z,14.73
2019-03-23T12:24:05.327Z,10.27
2019-03-23T12:26:37.135Z,10.47
2019-03-23T12:29:10.483Z,10.03
2019-03-23T12:31:42.393Z,9.40
2019-03-23T12:34:14.159Z,8.67
2019-03-23T12:36:45.923Z,10.53
2019-03-23T12:39:17.493Z,8.40
2019-03-23T12:41:49.418Z,12.07
2019-03-23T12:44:21.060Z,13.70
2019-03-23T12:46:52.810Z,12.57
2019-03-23T12:49:24.756Z,8.23
2019-03-23T12:51:56.419Z,10.30
2019-03-23T12:54:28.240Z,10.17
2019-03-23T12:57:00.086Z,10.50
2019-03-23T12:59:31.906Z,8.23
2019-03-23T13:02:03.999Z,11.63
2019-03-23T13:04:36.045Z,8.87
2019-03-23T13:07:07.767Z,12.73
2019-03-23T13:09:39.632Z,9.43
2019-03-23T13:12:12.466Z,9.90
2019-03-23T13:14:44.208Z,12.33
2019-03-23T13:17:16.004Z,11.33
2019-03-23T13:19:47.661Z,8.90
2019-03-23T13:22:19.525Z,9.97
2019-03-23T13:24:51.381Z,9.37
2019-03-23T13:27:23.185Z,8.77
2019-03-23T13:29:54.967Z,8.57
2019-03-23T13:32:27.032Z,9.67
2019-03-23T13:34:59.768Z,10.07
2019-03-23T13:37:31.529Z,8.03
2019-03-23T13:40:03.598Z,8.47
2019-03-23T13:42:35.437Z,9.33
2019-03-23T13:45:08.788Z,8.40
2019-03-23T13:47:40.438Z,11.17
2019-03-23T13:50:12.651Z,12.40
2019-03-23T13:52:44.503Z,11.00
2019-03-23T13:55:27.240Z,11.77
2019-03-23T13:58:10.578Z,10.57
2019-03-23T14:00:42.724Z,6.20
2019-03-23T14:03:14.709Z,13.17
2019-03-23T14:05:46.325Z,10.50
2019-03-23T14:08:18.155Z,6.83
2019-03-23T14:10:50.059Z,6.77
2019-03-23T14:13:21.513Z,8.33
2019-03-23T14:15:53.487Z,7.93
2019-03-23T14:18:25.316Z,5.40
2019-03-23T14:20:57.069Z,6.00
2019-03-23T14:23:28.744Z,5.23
2019-03-23T14:26:00.511Z,6.57
2019-03-23T14:28:32.231Z,9.77
2019-03-23T14:31:04.209Z,7.20
2019-03-23T14:33:36.001Z,8.03
2019-03-23T14:36:07.854Z,6.33
2019-03-23T14:38:39.389Z,7.27
2019-03-23T14:41:11.536Z,6.93
2019-03-23T14:43:43.261Z,7.57
2019-03-23T14:46:15.476Z,7.27
2019-03-23T14:48:47.401Z,7.20
2019-03-23T14:51:19.319Z,6.90
2019-03-23T14:53:51.266Z,13.27
2019-03-23T14:56:23.141Z,5.87
2019-03-23T14:58:54.975Z,8.43
2019-03-23T15:01:26.885Z,7.87
2019-03-23T15:03:58.593Z,8.67
2019-03-23T15:06:30.207Z,6.90
2019-03-23T15:09:03.167Z,9.10
2019-03-23T15:11:35.529Z,6.33
2019-03-23T15:14:07.425Z,8.20
2019-03-23T15:16:38.902Z,7.80
2019-03-23T15:19:10.385Z,6.53
2019-03-23T15:21:41.946Z,8.17
2019-03-23T15:24:13.698Z,7.50
2019-03-23T15:26:45.728Z,11.67
2019-03-23T15:29:17.307Z,8.50
2019-03-23T15:31:49.037Z,7.43
2019-03-23T15:34:20.829Z,9.67
2019-03-23T15:36:52.791Z,7.63
2019-03-23T15:39:24.647Z,6.90
2019-03-23T15:41:56.687Z,9.37
2019-03-23T15:44:28.295Z,8.07
2019-03-23T15:47:00.228Z,12.77
2019-03-23T15:49:31.950Z,8.53
2019-03-23T15:52:03.773Z,7.00
2019-03-23T15:54:35.346Z,8.27
2019-03-23T15:57:07.103Z,8.70
2019-03-23T15:59:38.961Z,12.73
2019-03-23T16:02:10.975Z,8.47
2019-03-23T16:04:42.952Z,8.23
2019-03-23T16:07:14.797Z,11.63
2019-03-23T16:09:46.613Z,8.73
2019-03-23T16:12:18.474Z,11.97
2019-03-23T16:14:50.630Z,10.23
2019-03-23T16:17:22.643Z,20.27
2019-03-23T16:19:54.275Z,7.90
2019-03-23T16:22:26.068Z,12.00
2019-03-23T16:24:57.850Z,11.40
2019-03-23T16:27:29.688Z,17.37
2019-03-23T16:30:01.533Z,16.77
2019-03-23T16:32:33.161Z,12.80
2019-03-23T16:35:05.381Z,14.13
2019-03-23T16:37:37.386Z,15.47
2019-03-23T16:40:10.405Z,12.27
2019-03-23T16:42:45.616Z,10.70
2019-03-23T16:45:15.768Z,13.73
2019-03-23T16:47:47.762Z,11.40
2019-03-23T16:50:19.693Z,10.63
2019-03-23T16:52:51.459Z,11.80
2019-03-23T16:55:23.360Z,15.23
2019-03-23T16:57:55.478Z,16.53
2019-03-23T17:00:37.528Z,14.53
2019-03-23T17:03:09.291Z,10.97
2019-03-23T17:05:41.010Z,10.03
2019-03-23T17:08:12.922Z,10.57
2019-03-23T17:10:44.697Z,10.23
2019-03-23T17:13:16.566Z,9.67
2019-03-23T17:15:48.300Z,11.10
2019-03-23T17:18:21.725Z,9.77
2019-03-23T17:20:55.127Z,12.67
2019-03-23T17:23:26.775Z,12.03
2019-03-23T17:25:58.551Z,13.33
2019-03-23T17:28:30.338Z,11.83
2019-03-23T17:31:01.851Z,12.47
2019-03-23T17:33:33.747Z,16.47
2019-03-23T17:36:05.732Z,18.63
2019-03-23T17:38:37.552Z,18.50
2019-03-23T17:41:10.504Z,14.87
2019-03-23T17:43:42.581Z,12.70
2019-03-23T17:46:14.116Z,14.07
2019-03-23T17:48:45.948Z,14.40
2019-03-23T17:51:18.038Z,15.40
2019-03-23T17:53:58.319Z,16.77
2019-03-23T17:56:23.500Z,18.63
2019-03-23T17:58:55.503Z,19.63
2019-03-23T18:01:27.444Z,16.93
2019-03-23T18:03:59.223Z,30.00
2019-03-23T18:06:30.943Z,26.73
2019-03-23T18:09:02.807Z,22.20
2019-03-23T18:11:35.704Z,14.90
2019-03-23T18:14:07.250Z,16.93
2019-03-23T18:16:38.932Z,15.33
2019-03-23T18:19:10.565Z,15.30
2019-03-23T18:21:42.493Z,17.47
2019-03-23T18:24:14.454Z,18.53
2019-03-23T18:26:46.276Z,16.00
2019-03-23T18:29:18.341Z,15.17
2019-03-23T18:31:50.297Z,17.30
2019-03-23T18:34:22.023Z,22.47
2019-03-23T18:36:54.681Z,22.33
2019-03-23T18:39:26.379Z,21.23
2019-03-23T18:41:58.348Z,20.73
2019-03-23T18:44:30.119Z,26.60
2019-03-23T18:47:03.179Z,37.10
2019-03-23T18:49:34.906Z,34.93
2019-03-23T18:52:06.549Z,38.07
2019-03-23T18:54:39.553Z,37.03
2019-03-23T18:57:11.348Z,49.07
2019-03-23T18:59:43.149Z,36.07
2019-03-23T19:02:14.781Z,39.33
2019-03-23T19:04:46.364Z,37.80
2019-03-23T19:07:18.134Z,31.87
2019-03-23T19:09:49.992Z,38.30
2019-03-23T19:12:21.652Z,38.93
2019-03-23T19:14:53.576Z,37.13
2019-03-23T19:17:25.310Z,37.73
2019-03-23T19:19:56.844Z,38.10
2019-03-23T19:22:29.490Z,34.40
2019-03-23T19:25:01.286Z,36.00
2019-03-23T19:27:32.769Z,27.63
2019-03-23T19:30:04.565Z,27.90
2019-03-23T19:32:36.509Z,24.20
2019-03-23T19:35:08.531Z,22.83
2019-03-23T19:37:40.176Z,21.97
2019-03-23T19:40:12.332Z,21.70
2019-03-23T19:42:44.124Z,19.97
2019-03-23T19:45:16.117Z,17.20
2019-03-23T19:47:47.803Z,21.13
2019-03-23T19:50:20.124Z,21.97
2019-03-23T19:52:52.042Z,24.97
2019-03-23T19:55:24.038Z,22.77
2019-03-23T19:57:55.937Z,22.13
2019-03-23T20:00:27.707Z,22.17
2019-03-23T20:02:59.516Z,19.53
2019-03-23T20:05:31.271Z,23.17
2019-03-23T20:08:03.738Z,20.88
2019-03-23T20:10:35.911Z,25.60
2019-03-23T20:13:08.084Z,21.65
2019-03-23T20:15:40.254Z,27.27
2019-03-23T20:18:11.862Z,19.33
2019-03-23T20:20:43.741Z,21.10
2019-03-23T20:23:15.641Z,22.33
2019-03-23T20:25:47.570Z,20.17
2019-03-23T20:28:19.469Z,25.50
2019-03-23T20:30:51.602Z,27.00
2019-03-23T20:33:24.038Z,28.73
2019-03-23T20:35:56.009Z,25.53
2019-03-23T20:38:28.008Z,22.63
2019-03-23T20:40:59.959Z,22.37
2019-03-23T20:43:31.916Z,21.00
2019-03-23T20:46:03.595Z,22.10
2019-03-23T20:48:36.570Z,20.23
2019-03-23T20:51:08.589Z,23.43
2019-03-23T20:53:40.370Z,22.80
2019-03-23T20:56:12.040Z,23.73
2019-03-23T20:58:43.687Z,19.17
2019-03-23T21:01:15.339Z,22.47
2019-03-23T21:03:47.038Z,19.43
2019-03-23T21:06:18.588Z,19.27
2019-03-23T21:08:50.172Z,22.43
2019-03-23T21:11:21.733Z,22.43
2019-03-23T21:13:53.312Z,23.40
2019-03-23T21:16:24.916Z,22.77
2019-03-23T21:18:56.510Z,23.63
2019-03-23T21:21:28.081Z,23.93
2019-03-23T21:24:00.076Z,24.50
2019-03-23T21:26:31.882Z,21.23
2019-03-23T21:29:03.735Z,22.17
2019-03-23T21:31:35.940Z,23.30
2019-03-23T21:34:07.962Z,23.70
2019-03-23T21:36:39.759Z,25.37
2019-03-23T21:39:11.706Z,23.60
2019-03-23T21:41:43.748Z,27.65
2019-03-23T21:44:15.891Z,25.30
2019-03-23T21:46:47.714Z,22.80
2019-03-23T21:49:20.516Z,22.77
2019-03-23T21:51:52.789Z,21.62
2019-03-23T21:54:24.434Z,27.67
2019-03-23T21:56:56.092Z,25.90
2019-03-23T21:59:29.103Z,29.77
2019-03-23T22:02:00.744Z,30.10
2019-03-23T22:04:32.647Z,27.73
2019-03-23T22:07:04.880Z,42.65
2019-03-23T22:09:36.971Z,56.90
2019-03-23T22:12:09.246Z,45.60
2019-03-23T22:14:41.895Z,38.10
2019-03-23T22:17:14.439Z,69.05
2019-03-23T22:19:46.596Z,56.08
2019-03-23T22:22:18.598Z,63.10
2019-03-23T22:24:50.559Z,96.72
2019-03-23T22:27:22.751Z,101.05
2019-03-23T22:29:52.055Z,72.87
2019-03-23T22:32:24.513Z,61.33
2019-03-23T22:34:56.743Z,83.72
2019-03-23T22:37:29.052Z,54.05
2019-03-23T22:40:01.058Z,51.08
2019-03-23T22:42:33.155Z,46.45
2019-03-23T22:45:05.437Z,39.03
2019-03-23T22:47:37.534Z,39.58
2019-03-23T22:50:10.623Z,37.28
2019-03-23T22:52:42.808Z,39.00
2019-03-23T22:55:15.073Z,39.88
2019-03-23T22:57:47.217Z,38.70
2019-03-23T23:00:23.116Z,33.35
2019-03-23T23:02:56.839Z,33.90
2019-03-23T23:05:28.964Z,32.08
2019-03-23T23:08:01.300Z,35.48
2019-03-23T23:10:33.554Z,35.78
2019-03-23T23:13:05.877Z,38.25
2019-03-23T23:15:38.016Z,36.88
2019-03-23T23:18:10.174Z,46.00
2019-03-23T23:20:42.170Z,38.35
2019-03-23T23:23:14.475Z,39.45
2019-03-23T23:25:46.561Z,41.33
2019-03-23T23:28:18.828Z,36.00
2019-03-23T23:30:50.941Z,34.73
2019-03-23T23:33:22.916Z,29.30
2019-03-23T23:35:54.829Z,29.67
2019-03-23T23:38:26.736Z,29.85
2019-03-23T23:40:58.800Z,29.70
2019-03-23T23:43:30.954Z,26.33
2019-03-23T23:46:02.871Z,22.45
2019-03-23T23:48:34.965Z,22.30
2019-03-23T23:51:07.162Z,20.92
2019-03-23T23:53:39.132Z,20.95
2019-03-23T23:56:11.335Z,20.62
2019-03-23T23:58:43.386Z,16.73
